»·PEaware :: DAL1411 KFAT-KLAS

DAL1411 :: KFAT-KLAS

FLIGHT INFORMATION

Flight Status: Arrived
Operator:
Delta Air Lines
More flights by this operator :: More flights under this callsign
Pilot: Kevin M. (7)
Aircraft: BOEING 737-800
(B738)
More flights by this aircraft type
Origin: KFAT Fresno Yosemite Intl
United States
Destination: KLAS McCarran Intl
United States
More flights between these airports :: More routes between these airports
Route: FRA CABAB Q162 KENNO TACUS SUNST4
File this flight plan on PilotEdge
Remarks:
Altitude:
(Current/Filed)
33,000ft
Speed:
(Current/Filed)
468kts
Departed: 24-Aug-20 10:13 AM
Arrived: 24-Aug-20 10:59 AM
Distance/Time
Traveled:
225nm/0:46
Distance/Time
To Go:
Arrived

Flight Plot

Page will automatically refresh every two minutes.

Flight plan parsing failed; only flown route is shown


Map Options




Map Legend


Flown Route
Filed Route
Departure Airport
Arrival Airport
Navaid (VOR, NDB)
Fix

Horizontal Profiles

Position Reports

Time Latitude Longitude Heading Altitude Ground
Speed
24-Aug-20 09:54 36.771047 -119.718102 314 335ft 0kts
24-Aug-20 09:55 36.771047 -119.718102 314 335ft 0kts
24-Aug-20 09:56 36.771047 -119.718102 314 335ft 0kts
24-Aug-20 09:57 36.771047 -119.718102 314 335ft 0kts
24-Aug-20 09:58 36.771047 -119.718102 314 335ft 0kts
24-Aug-20 09:59 36.771047 -119.718102 314 335ft 0kts
24-Aug-20 10:00 36.771047 -119.718102 314 335ft 0kts
24-Aug-20 10:01 36.771047 -119.718102 314 335ft 0kts
24-Aug-20 10:02 36.771047 -119.718102 314 335ft 0kts
24-Aug-20 10:03 36.771047 -119.718102 314 335ft 0kts
24-Aug-20 10:04 36.771047 -119.718102 314 335ft 0kts
24-Aug-20 10:05 36.771043 -119.718096 314 335ft 1kts
24-Aug-20 10:07 36.770602 -119.717610 358 334ft 2kts
24-Aug-20 10:08 36.770429 -119.717699 36 334ft 0kts
24-Aug-20 10:09 36.770429 -119.717699 36 334ft 0kts
24-Aug-20 10:10 36.770969 -119.717222 34 335ft 10kts
24-Aug-20 10:11 36.770958 -119.713736 125 336ft 22kts
24-Aug-20 10:12 36.767599 -119.706658 89 337ft 17kts
24-Aug-20 10:13 36.769982 -119.705533 304 339ft 49kts
24-Aug-20 10:14 36.795096 -119.748249 305 2096ft 190kts
24-Aug-20 10:15 36.843910 -119.791697 12 4350ft 270kts
24-Aug-20 10:16 36.909178 -119.735963 30 7515ft 300kts
24-Aug-20 10:17 36.983117 -119.681737 41 10461ft 323kts
24-Aug-20 10:18 37.021378 -119.571525 72 11812ft 382kts
24-Aug-20 10:19 37.063888 -119.441314 70 13511ft 418kts
24-Aug-20 10:20 37.107565 -119.303343 72 15762ft 433kts
24-Aug-20 10:21 37.149598 -119.159467 73 17726ft 447kts
24-Aug-20 10:22 37.190956 -119.009916 73 19398ft 460kts
24-Aug-20 10:23 37.235121 -118.857391 71 20931ft 473kts
24-Aug-20 10:23 37.276027 -118.727984 69 22144ft 482kts
24-Aug-20 10:24 37.301932 -118.562801 85 23462ft 487kts
24-Aug-20 10:26 37.320024 -118.363757 87 24931ft 495kts
24-Aug-20 10:26 37.329842 -118.219302 88 25879ft 500kts
24-Aug-20 10:27 37.340580 -118.045647 88 27339ft 499kts
24-Aug-20 10:29 37.342119 -117.843801 97 29160ft 492kts
24-Aug-20 10:29 37.332431 -117.701696 99 30486ft 489kts
24-Aug-20 10:30 37.318325 -117.532340 99 32027ft 486kts
24-Aug-20 10:31 37.301548 -117.365247 109 33196ft 468kts
24-Aug-20 10:32 37.245633 -117.218826 124 33218ft 471kts
24-Aug-20 10:33 37.177331 -117.078729 126 33215ft 470kts
24-Aug-20 10:34 37.105255 -116.941707 136 33224ft 470kts
24-Aug-20 10:35 37.005238 -116.839288 147 33205ft 462kts
24-Aug-20 10:36 36.901326 -116.748727 148 33114ft 440kts
24-Aug-20 10:37 36.802363 -116.657556 142 33070ft 453kts
24-Aug-20 10:38 36.708615 -116.552311 140 32980ft 455kts
24-Aug-20 10:39 36.615334 -116.444313 139 29835ft 455kts
24-Aug-20 10:40 36.525628 -116.339920 139 27158ft 433kts
24-Aug-20 10:41 36.436973 -116.230783 134 24356ft 459kts
24-Aug-20 10:42 36.355396 -116.116698 134 21521ft 426kts
24-Aug-20 10:43 36.279490 -116.010364 134 18817ft 401kts
24-Aug-20 10:44 36.208518 -115.908446 126 16229ft 383kts
24-Aug-20 10:45 36.167944 -115.798630 115 16049ft 321kts
24-Aug-20 10:46 36.134791 -115.695613 115 15862ft 321kts
24-Aug-20 10:47 36.102023 -115.594126 115 14366ft 314kts
24-Aug-20 10:48 36.069913 -115.495020 114 12848ft 308kts
24-Aug-20 10:49 36.038286 -115.397642 114 11337ft 302kts
24-Aug-20 10:50 36.026152 -115.297928 96 10263ft 288kts
24-Aug-20 10:51 36.019358 -115.197293 96 8344ft 303kts
24-Aug-20 10:52 36.010709 -115.097590 96 7362ft 280kts
24-Aug-20 10:53 36.009194 -115.002315 81 5959ft 277kts
24-Aug-20 10:54 36.061435 -114.958308 341 4996ft 238kts
24-Aug-20 10:55 36.075974 -115.027873 257 3812ft 210kts
24-Aug-20 10:56 36.073618 -115.092446 271 2616ft 171kts
24-Aug-20 10:57 36.073647 -115.146307 271 2110ft 94kts
24-Aug-20 10:58 36.077818 -115.158128 33 2147ft 17kts
24-Aug-20 10:59 36.077780 -115.147178 93 2107ft 40kts
24-Aug-20 11:00 36.079828 -115.140569 58 2082ft 5kts
24-Aug-20 11:01 36.079890 -115.140442 58 2082ft 0kts
24-Aug-20 11:02 36.079890 -115.140442 58 2082ft 0kts

Navigation Log

Ident Type
Flight plan parsing failed, navigation log unavailable